Waimanalo, Hawaii
Current Conditions -  °F | °C
As of 2:57 PM on Saturday 20 Dec 2014 (Local Time) from PHNG Reporting Station
Clear Clear  
Wind Chill: 80°   Ceiling: Unl
Heat Index: 83°   Visibility: 10mi
Dew Point: 68°   Wind: 8mph
Humidity: 67%   Direction: 60°ENE
Pressure: 29.97"   Gusts: NA
Location:  21.34°N, 157.71°W
Report Text: PHNG 210057Z AUTO 06007KT 10SM CLR 27/20 A2997 RMK AO2 SLP145 T02670200 $
Loading
Personal Weather Stations






























Interactive Weather Map New forecast layout! Learn more

10-Day Weather Forecast

Advertisements
Track Severe Weather on mobile